Terminal Aerodrome Forecast
Issued by NWS

Home | Current Version | Previous Version | Text Only | Print | Product List | Glossary Off
Versions: 1 2 3 4 5 6 7 8 9 10 11 12 13

000
FTUS44 KTSA 020520
TAFMLC
TAF
KMLC 020520Z 0206/0306 20011KT P6SM BKN100
     FM021500 22012G20KT P6SM BKN100 PROB30 0221/0224 -TSRA BKN050CB
     FM030000 19010KT P6SM VCTS BKN050CB PROB30 0302/0306 4SM TSRA
      BKN035CB=

USA.gov is the U.S. government's official web portal to all federal, state and local government web resources and services.